Time;durP1;ratioP1;P1;durP2;ratioP2;P2;SDS_P1;SDS_P2;PMS_P1;PMS_P2;Temp;Humidity;BMP_temperature;BMP_pressure;BME280_temperature;BME280_humidity;BME280_pressure;Samples;Min_cycle;Max_cycle;Signal;HPM_P1;HPM_P2
2023/12/10 00:01:27;;;;;;;31.98;17.10;;;;;;;1.46;94.86;99541.81;4931901;28;20111;-70
2023/12/10 00:03:54;;;;;;;33.00;16.98;;;;;;;1.48;94.77;99547.88;4931154;28;20111;-70
2023/12/10 00:06:20;;;;;;;36.53;17.00;;;;;;;1.38;94.75;99538.81;4932619;28;20044;-69
2023/12/10 00:08:47;;;;;;;30.38;16.30;;;;;;;1.49;94.96;99535.38;4932105;28;20087;-70
2023/12/10 00:11:14;;;;;;;27.25;16.95;;;;;;;1.45;95.01;99528.56;4932286;28;20493;-70
2023/12/10 00:13:40;;;;;;;32.03;15.80;;;;;;;1.59;94.69;99533.78;4932640;28;20054;-70
2023/12/10 00:16:11;;;;;;;21.93;11.83;;;;;;;1.46;94.80;99539.13;4933369;28;20048;-70
2023/12/10 00:18:38;;;;;;;31.35;16.55;;;;;;;1.31;94.51;99539.31;4932717;28;20776;-69
2023/12/10 00:21:05;;;;;;;32.72;17.00;;;;;;;1.29;95.60;99542.97;4931990;28;20103;-69
2023/12/10 00:23:32;;;;;;;30.67;17.05;;;;;;;1.27;95.38;99534.22;4932958;28;20127;-69
2023/12/10 00:25:58;;;;;;;35.35;17.88;;;;;;;1.26;95.43;99540.53;4931975;28;20169;-69
2023/12/10 00:28:25;;;;;;;33.08;18.20;;;;;;;1.27;95.03;99554.72;4930939;28;20058;-69
2023/12/10 00:30:52;;;;;;;31.15;18.10;;;;;;;1.25;95.32;99541.47;4932146;28;20106;-69
2023/12/10 00:33:19;;;;;;;37.75;17.77;;;;;;;1.37;95.90;99546.94;4932347;28;20047;-69
2023/12/10 00:35:46;;;;;;;32.70;18.30;;;;;;;1.27;95.55;99544.91;4932192;28;20501;-69
2023/12/10 00:38:13;;;;;;;35.97;19.55;;;;;;;1.26;95.67;99540.53;4932137;28;20051;-69
2023/12/10 00:40:39;;;;;;;33.50;17.92;;;;;;;1.24;95.57;99537.09;4933279;28;20390;-69
2023/12/10 00:43:06;;;;;;;35.78;19.70;;;;;;;1.24;95.68;99539.78;4932146;28;20059;-69
2023/12/10 00:45:32;;;;;;;36.45;19.25;;;;;;;1.26;95.81;99548.53;4931220;28;20074;-70
2023/12/10 00:47:59;;;;;;;31.95;18.45;;;;;;;1.25;95.45;99538.81;4932517;28;20492;-69
2023/12/10 00:50:26;;;;;;;41.83;19.08;;;;;;;1.24;95.48;99537.09;4931916;28;20050;-69
2023/12/10 00:52:53;;;;;;;35.80;18.98;;;;;;;1.23;95.81;99534.50;4929113;28;20131;-69
2023/12/10 00:55:20;;;;;;;36.83;19.42;;;;;;;1.24;96.39;99528.25;4912888;29;20116;-69
2023/12/10 00:57:46;;;;;;;39.05;19.50;;;;;;;1.21;95.98;99523.94;4911653;29;20052;-69
2023/12/10 01:00:13;;;;;;;37.13;18.30;;;;;;;1.20;96.22;99510.69;4912863;29;20480;-69
2023/12/10 01:02:40;;;;;;;34.15;19.50;;;;;;;1.21;96.12;99523.94;4912480;29;20369;-69
2023/12/10 01:05:08;;;;;;;33.78;19.60;;;;;;;1.20;96.53;99521.38;4912235;29;20536;-69
2023/12/10 01:07:34;;;;;;;32.17;19.33;;;;;;;1.19;96.47;99515.19;4913270;29;20048;-70
2023/12/10 01:10:07;;;;;;;36.63;20.38;;;;;;;1.18;96.59;99516.16;4912868;29;20056;-70
2023/12/10 01:12:36;;;;;;;38.58;20.13;;;;;;;1.17;96.27;99511.78;4912411;29;20078;-70
2023/12/10 01:15:06;;;;;;;32.97;17.98;;;;;;;1.17;96.57;99511.78;4913278;29;20052;-70
2023/12/10 01:17:32;;;;;;;36.45;19.23;;;;;;;1.16;96.47;99514.56;4913730;29;20044;-71
2023/12/10 01:20:00;;;;;;;34.75;19.00;;;;;;;1.16;96.69;99525.22;4913101;29;20391;-70
2023/12/10 01:22:27;;;;;;;48.47;22.17;;;;;;;1.16;96.55;99526.09;4911278;29;20051;-70
2023/12/10 01:24:54;;;;;;;36.38;19.92;;;;;;;1.22;96.48;99531.00;4912296;29;20088;-70
2023/12/10 01:27:21;;;;;;;35.83;20.45;;;;;;;1.18;96.34;99526.84;4912540;29;20111;-70
2023/12/10 01:29:48;;;;;;;37.45;21.10;;;;;;;1.16;96.43;99525.22;4912238;29;20063;-70
2023/12/10 01:32:15;;;;;;;35.42;20.45;;;;;;;1.15;96.51;99519.03;4912442;29;20048;-70
2023/12/10 01:34:41;;;;;;;40.97;19.95;;;;;;;1.15;96.42;99524.38;4912387;29;20067;-72
2023/12/10 01:37:08;;;;;;;39.83;20.75;;;;;;;1.17;96.71;99525.13;4912674;29;20056;-70
2023/12/10 01:39:35;;;;;;;38.67;19.13;;;;;;;1.15;96.62;99528.88;4912177;29;20071;-70
2023/12/10 01:42:03;;;;;;;35.78;20.20;;;;;;;1.15;96.49;99531.53;4916248;29;20508;-70
2023/12/10 01:44:30;;;;;;;36.10;21.10;;;;;;;1.12;96.31;99545.94;4917236;29;20048;-69
2023/12/10 01:46:57;;;;;;;35.42;20.20;;;;;;;1.12;96.71;99553.94;4914339;29;20580;-70
2023/12/10 01:49:26;;;;;;;35.10;20.13;;;;;;;1.12;96.95;99551.28;4916248;29;20099;-70
2023/12/10 01:51:54;;;;;;;32.80;18.75;;;;;;;1.12;96.79;99556.63;4915946;29;20461;-70
2023/12/10 01:54:22;;;;;;;32.08;18.92;;;;;;;1.10;96.89;99553.19;4916241;29;20074;-69
2023/12/10 01:56:49;;;;;;;36.85;18.95;;;;;;;1.12;96.54;99561.09;4915707;29;20099;-69
2023/12/10 01:59:31;;;;;;;34.30;18.73;;;;;;;1.08;96.82;99560.47;4917043;29;20180;-70
2023/12/10 02:01:58;;;;;;;31.25;17.23;;;;;;;1.06;96.15;99572.22;4916681;29;20473;-69
2023/12/10 02:04:26;;;;;;;34.10;19.08;;;;;;;1.09;96.41;99567.50;4916469;29;20048;-69
2023/12/10 02:07:21;;;;;;;34.05;18.17;;;;;;;1.10;95.95;99576.38;4915867;29;20148;-70
2023/12/10 02:09:48;;;;;;;34.10;18.02;;;;;;;1.05;96.05;99558.00;4915813;29;20497;-70
2023/12/10 02:12:17;;;;;;;30.20;16.88;;;;;;;0.99;95.59;99558.41;4916031;29;20103;-69
2023/12/10 02:14:44;;;;;;;34.00;17.92;;;;;;;0.97;96.00;99541.66;4915743;29;20055;-70
2023/12/10 02:17:11;;;;;;;29.17;17.48;;;;;;;0.95;96.42;99547.09;4915733;29;20468;-69
2023/12/10 02:19:37;;;;;;;31.83;17.17;;;;;;;0.92;96.01;99563.31;4915710;29;20103;-70
2023/12/10 02:22:13;;;;;;;30.02;16.65;;;;;;;0.91;96.52;99558.94;4915969;29;20485;-69
2023/12/10 02:24:52;;;;;;;31.02;17.55;;;;;;;0.91;96.46;99566.09;4916090;29;20501;-70
2023/12/10 02:27:22;;;;;;;31.20;17.05;;;;;;;0.89;95.90;99560.00;4915806;29;20072;-70
2023/12/10 02:29:49;;;;;;;30.00;17.08;;;;;;;0.84;95.94;99556.78;4915292;29;20063;-70
2023/12/10 02:32:16;;;;;;;29.23;16.88;;;;;;;0.85;96.06;99555.81;4915661;29;20052;-70
2023/12/10 02:34:43;;;;;;;28.92;16.25;;;;;;;0.81;96.39;99563.19;4915732;29;20440;-70
2023/12/10 02:37:10;;;;;;;27.58;15.30;;;;;;;0.77;96.12;99572.34;4915224;29;20052;-70
2023/12/10 02:39:36;;;;;;;27.67;17.10;;;;;;;0.84;96.12;99567.44;4915969;29;20136;-70
2023/12/10 02:42:04;;;;;;;30.25;16.50;;;;;;;0.78;96.58;99570.53;4915122;29;20494;-71
2023/12/10 02:44:30;;;;;;;28.27;16.63;;;;;;;0.77;96.96;99568.81;4916621;29;20095;-69
2023/12/10 02:46:57;;;;;;;29.02;16.90;;;;;;;0.77;96.69;99574.13;4914700;29;20103;-69
2023/12/10 02:49:23;;;;;;;33.60;18.40;;;;;;;0.73;96.90;99568.16;4914982;29;20398;-69
2023/12/10 02:51:50;;;;;;;30.95;16.08;;;;;;;0.78;96.85;99567.88;4912831;29;20115;-69
2023/12/10 02:54:18;;;;;;;34.72;18.65;;;;;;;0.74;96.84;99563.69;4926829;28;20040;-70
2023/12/10 02:56:45;;;;;;;33.15;18.45;;;;;;;0.75;96.69;99562.72;4933634;28;20122;-70
2023/12/10 02:59:12;;;;;;;29.92;17.67;;;;;;;0.70;96.51;99573.72;4934617;28;20048;-69
2023/12/10 03:01:40;;;;;;;30.95;18.25;;;;;;;0.70;96.84;99573.72;4933509;28;20578;-69
2023/12/10 03:04:06;;;;;;;31.98;18.30;;;;;;;0.68;97.16;99571.16;4933524;28;20504;-70
2023/12/10 03:06:33;;;;;;;27.85;17.00;;;;;;;0.68;96.83;99576.50;4934326;28;20055;-70
2023/12/10 03:09:00;;;;;;;29.83;19.25;;;;;;;0.69;97.04;99575.53;4934450;28;20052;-70
2023/12/10 03:11:26;;;;;;;32.33;17.88;;;;;;;0.71;97.07;99578.94;4934000;28;20432;-70
2023/12/10 03:13:53;;;;;;;35.47;20.27;;;;;;;0.68;96.91;99586.31;4933106;28;20119;-70
2023/12/10 03:16:19;;;;;;;31.23;18.75;;;;;;;0.64;96.78;99595.44;4933742;28;20059;-70
2023/12/10 03:18:46;;;;;;;30.92;18.50;;;;;;;0.66;96.65;99602.41;4933209;28;20148;-70
2023/12/10 03:21:13;;;;;;;33.05;19.05;;;;;;;0.64;97.25;99608.78;4933467;28;20539;-69
2023/12/10 03:23:40;;;;;;;36.67;20.08;;;;;;;0.61;97.32;99609.88;4933774;28;20056;-70
2023/12/10 03:26:06;;;;;;;35.10;19.75;;;;;;;0.66;97.08;99604.22;4934356;28;20087;-70
2023/12/10 03:28:33;;;;;;;36.55;20.48;;;;;;;0.59;97.19;99611.78;4934229;28;20067;-69
2023/12/10 03:31:00;;;;;;;35.83;20.60;;;;;;;0.61;97.29;99604.53;4932999;28;20079;-70
2023/12/10 03:33:26;;;;;;;40.85;21.38;;;;;;;0.62;97.49;99606.22;4932321;28;20044;-70
2023/12/10 03:35:53;;;;;;;37.97;21.05;;;;;;;0.62;97.24;99608.03;4932754;28;20420;-70
2023/12/10 03:38:20;;;;;;;37.47;20.70;;;;;;;0.67;97.50;99614.78;4933917;28;20424;-70
2023/12/10 03:40:47;;;;;;;40.78;21.45;;;;;;;0.68;97.09;99610.31;4932900;28;20055;-70
2023/12/10 03:43:13;;;;;;;38.38;20.85;;;;;;;0.67;97.37;99612.09;4934227;28;20095;-70
2023/12/10 03:45:41;;;;;;;40.80;21.73;;;;;;;0.64;97.48;99623.00;4932901;28;20055;-70
2023/12/10 03:48:08;;;;;;;36.70;21.17;;;;;;;0.64;97.37;99612.31;4933337;28;20051;-70
2023/12/10 03:50:35;;;;;;;36.58;19.75;;;;;;;0.71;97.48;99618.13;4933249;28;20469;-70
2023/12/10 03:53:01;;;;;;;36.38;20.27;;;;;;;0.67;97.40;99625.44;4932479;28;20044;-70
2023/12/10 03:55:28;;;;;;;36.25;21.40;;;;;;;0.67;96.95;99625.44;4913779;29;20058;-69
2023/12/10 03:57:54;;;;;;;39.28;22.23;;;;;;;0.68;97.38;99619.19;4914230;29;20109;-69
2023/12/10 04:00:21;;;;;;;37.10;21.77;;;;;;;0.63;97.07;99618.63;4913579;29;20136;-69
2023/12/10 04:02:48;;;;;;;35.58;20.85;;;;;;;0.64;97.20;99620.31;4913163;29;20154;-70
2023/12/10 04:05:15;;;;;;;37.40;21.95;;;;;;;0.67;97.31;99636.13;4913693;29;20438;-69
2023/12/10 04:07:41;;;;;;;38.90;21.02;;;;;;;0.71;96.93;99626.13;4912206;29;20572;-69
2023/12/10 04:10:08;;;;;;;37.42;22.52;;;;;;;0.66;97.30;99629.06;4913813;29;20398;-69
2023/12/10 04:12:36;;;;;;;38.58;21.80;;;;;;;0.66;97.22;99633.56;4913581;29;20076;-69
2023/12/10 04:15:04;;;;;;;38.97;22.40;;;;;;;0.63;97.51;99629.28;4914449;29;20048;-68
2023/12/10 04:17:30;;;;;;;36.28;22.30;;;;;;;0.61;97.42;99636.53;4914247;29;20054;-69
2023/12/10 04:19:57;;;;;;;38.35;22.10;;;;;;;0.68;97.61;99637.00;4913489;29;20064;-69
2023/12/10 04:22:24;;;;;;;40.22;21.67;;;;;;;0.78;97.70;99645.28;4913633;29;20087;-69
2023/12/10 04:24:50;;;;;;;37.58;21.58;;;;;;;0.66;97.52;99641.56;4913681;29;20060;-69
2023/12/10 04:27:17;;;;;;;42.58;23.52;;;;;;;0.76;97.57;99645.34;4915176;29;20043;-68
2023/12/10 04:29:43;;;;;;;43.22;23.30;;;;;;;0.68;97.95;99653.88;4914189;29;20055;-69
2023/12/10 04:32:10;;;;;;;38.38;22.83;;;;;;;0.63;97.69;99652.44;4913943;29;20075;-68
2023/12/10 04:34:37;;;;;;;43.72;24.10;;;;;;;0.61;97.52;99647.22;4913463;29;20465;-69
2023/12/10 04:37:03;;;;;;;44.47;23.70;;;;;;;0.62;97.60;99645.41;4913197;29;20076;-69
2023/12/10 04:39:31;;;;;;;40.92;24.27;;;;;;;0.64;97.63;99648.81;4914567;29;20516;-68
2023/12/10 04:41:58;;;;;;;43.53;24.27;;;;;;;0.63;97.83;99645.31;4913448;29;20050;-69
2023/12/10 04:44:24;;;;;;;45.33;24.45;;;;;;;0.70;98.14;99646.63;4914069;29;20067;-69
2023/12/10 04:46:51;;;;;;;45.70;24.40;;;;;;;0.69;97.56;99644.91;4913462;29;20056;-69
2023/12/10 04:49:17;;;;;;;46.78;25.55;;;;;;;0.67;97.71;99645.94;4914306;29;20043;-69
2023/12/10 04:51:44;;;;;;;45.45;24.77;;;;;;;0.65;97.54;99653.19;4913801;29;20070;-69
2023/12/10 04:54:11;;;;;;;47.55;26.48;;;;;;;0.68;97.73;99653.88;4924412;28;20139;-69
2023/12/10 04:56:38;;;;;;;43.65;23.95;;;;;;;0.73;97.77;99658.91;4932608;28;20139;-69
2023/12/10 04:59:05;;;;;;;48.28;25.45;;;;;;;0.74;97.91;99660.59;4932373;28;20477;-70
2023/12/10 05:01:31;;;;;;;44.03;24.10;;;;;;;0.79;97.94;99660.31;4933616;28;20533;-68
2023/12/10 05:03:58;;;;;;;43.63;25.02;;;;;;;0.78;97.43;99664.81;4931240;28;20135;-68
2023/12/10 05:06:25;;;;;;;45.63;23.60;;;;;;;0.80;97.71;99662.03;4932905;28;20122;-68
2023/12/10 05:08:52;;;;;;;45.45;26.83;;;;;;;0.81;97.87;99669.09;4933225;28;20074;-69
2023/12/10 05:11:19;;;;;;;45.88;24.92;;;;;;;0.84;97.78;99680.41;4932668;28;20416;-69
2023/12/10 05:13:45;;;;;;;47.60;26.45;;;;;;;0.86;97.72;99677.63;4932327;28;20051;-69
2023/12/10 05:16:12;;;;;;;46.90;24.92;;;;;;;0.85;97.75;99686.59;4932687;28;20492;-69
2023/12/10 05:18:38;;;;;;;46.00;24.85;;;;;;;0.83;97.56;99691.19;4930629;28;20048;-69
2023/12/10 05:21:06;;;;;;;47.20;25.27;;;;;;;0.89;97.85;99688.13;4931002;28;20504;-68
2023/12/10 05:23:32;;;;;;;46.90;25.88;;;;;;;0.91;97.68;99691.56;4931221;29;20496;-69
2023/12/10 05:25:59;;;;;;;47.53;25.45;;;;;;;0.91;97.99;99687.06;4931701;28;20051;-69
2023/12/10 05:28:25;;;;;;;51.90;26.67;;;;;;;0.93;97.73;99686.97;4931825;28;20453;-69
2023/12/10 05:30:52;;;;;;;45.72;24.75;;;;;;;0.91;97.85;99691.56;4930746;28;20086;-69
2023/12/10 05:33:19;;;;;;;50.78;26.08;;;;;;;0.93;97.83;99692.31;4931007;28;20052;-69
2023/12/10 05:35:45;;;;;;;48.03;25.98;;;;;;;0.91;97.96;99703.09;4929145;28;20059;-69
2023/12/10 05:38:12;;;;;;;51.83;26.13;;;;;;;0.97;97.68;99701.84;4931239;28;20500;-69
2023/12/10 05:40:39;;;;;;;51.25;27.63;;;;;;;0.96;97.99;99700.13;4930576;28;20051;-69
2023/12/10 05:43:05;;;;;;;47.28;25.13;;;;;;;0.99;98.17;99705.25;4931109;28;20098;-69
2023/12/10 05:45:32;;;;;;;47.65;25.42;;;;;;;1.01;97.94;99703.34;4932047;28;20070;-70
2023/12/10 05:47:59;;;;;;;52.40;26.58;;;;;;;1.09;97.81;99709.03;4931698;28;20488;-68
2023/12/10 05:50:26;;;;;;;50.85;25.48;;;;;;;1.16;97.50;99710.38;4931220;28;20162;-68
2023/12/10 05:52:53;;;;;;;49.08;26.00;;;;;;;1.12;97.58;99711.50;4928517;28;20052;-69
2023/12/10 05:55:19;;;;;;;48.42;25.25;;;;;;;1.16;97.60;99722.88;4912614;29;20052;-68
2023/12/10 05:57:46;;;;;;;49.20;26.38;;;;;;;1.19;98.00;99718.16;4912732;29;20052;-68
2023/12/10 06:00:13;;;;;;;49.65;25.35;;;;;;;1.25;97.91;99719.59;4912561;29;20100;-68
2023/12/10 06:02:40;;;;;;;48.35;25.35;;;;;;;1.27;97.67;99721.19;4911444;29;20428;-69
2023/12/10 06:05:06;;;;;;;49.40;25.00;;;;;;;1.32;97.82;99725.38;4912705;29;20104;-69
2023/12/10 06:07:37;;;;;;;36.72;19.38;;;;;;;1.32;97.14;99722.69;4912152;29;20128;-70
2023/12/10 06:10:04;;;;;;;49.38;25.08;;;;;;;1.25;97.76;99728.47;4913278;29;20052;-70
2023/12/10 06:12:31;;;;;;;47.97;25.08;;;;;;;1.23;97.47;99735.72;4913620;29;20052;-69
2023/12/10 06:15:00;;;;;;;52.00;25.73;;;;;;;1.19;97.66;99730.66;4912911;29;20048;-69
2023/12/10 06:17:27;;;;;;;52.28;24.52;;;;;;;1.18;97.89;99731.63;4911914;29;20075;-69
2023/12/10 06:19:54;;;;;;;50.80;24.88;;;;;;;1.16;97.71;99737.06;4912572;29;20057;-69
2023/12/10 06:22:21;;;;;;;52.33;25.52;;;;;;;1.16;97.94;99750.44;4912544;29;20052;-69
2023/12/10 06:24:50;;;;;;;53.83;25.85;;;;;;;1.18;98.27;99747.66;4911538;29;20052;-69
2023/12/10 06:27:17;;;;;;;45.97;24.80;;;;;;;1.28;98.10;99744.28;4914853;29;20140;-69
2023/12/10 06:29:44;;;;;;;51.58;25.98;;;;;;;1.24;97.96;99748.13;4914638;29;20059;-70
2023/12/10 06:32:10;;;;;;;48.83;24.67;;;;;;;1.24;97.96;99752.59;4915580;29;20099;-68
2023/12/10 06:34:37;;;;;;;49.53;24.65;;;;;;;1.31;98.32;99753.88;4915141;29;20052;-68
2023/12/10 06:37:04;;;;;;;43.17;23.13;;;;;;;1.35;97.90;99759.91;4916319;29;20071;-69
2023/12/10 06:39:30;;;;;;;51.75;26.30;;;;;;;1.31;97.98;99769.91;4916074;29;20501;-68
2023/12/10 06:41:57;;;;;;;49.55;24.60;;;;;;;1.37;98.19;99763.34;4914812;29;20139;-68
2023/12/10 06:44:24;;;;;;;51.97;25.08;;;;;;;1.36;98.07;99766.97;4915888;29;20151;-70
2023/12/10 06:46:51;;;;;;;51.03;25.23;;;;;;;1.39;97.98;99767.59;4915155;29;20129;-69
2023/12/10 06:49:18;;;;;;;50.22;24.83;;;;;;;1.37;98.16;99768.66;4915546;29;20048;-68
2023/12/10 06:51:44;;;;;;;56.58;25.15;;;;;;;1.35;98.06;99766.09;4912389;29;20064;-68
2023/12/10 06:54:11;;;;;;;54.47;23.88;;;;;;;1.39;98.15;99772.94;4926196;28;20545;-68
2023/12/10 06:56:39;;;;;;;57.92;24.95;;;;;;;1.37;98.06;99779.34;4932639;28;20173;-68
2023/12/10 06:59:09;;;;;;;56.22;25.58;;;;;;;1.39;98.37;99780.09;4932965;28;20126;-69
2023/12/10 07:01:39;;;;;;;48.60;24.65;;;;;;;1.44;98.38;99781.53;4933859;28;20127;-68
2023/12/10 07:04:08;;;;;;;54.30;24.25;;;;;;;1.39;98.05;99772.09;4933905;28;20079;-69
2023/12/10 07:06:35;;;;;;;50.13;23.55;;;;;;;1.39;98.46;99780.09;4933763;28;20388;-69
2023/12/10 07:09:02;;;;;;;61.20;25.60;;;;;;;1.38;98.26;99773.06;4934792;28;20126;-69
2023/12/10 07:11:28;;;;;;;53.10;25.13;;;;;;;1.35;98.06;99791.97;4933963;28;20119;-68
2023/12/10 07:13:55;;;;;;;54.13;24.98;;;;;;;1.43;98.55;99789.66;4933475;28;20458;-70
2023/12/10 07:16:21;;;;;;;48.72;24.15;;;;;;;1.44;98.17;99786.88;4933799;28;20099;-68
2023/12/10 07:18:48;;;;;;;52.17;24.13;;;;;;;1.67;98.29;99795.19;4933429;28;20519;-68
2023/12/10 07:21:15;;;;;;;48.67;23.33;;;;;;;1.63;98.04;99799.88;4935540;28;20128;-66
2023/12/10 07:23:42;;;;;;;59.38;22.80;;;;;;;1.70;98.22;99803.88;4937145;28;20059;-69
2023/12/10 07:26:09;;;;;;;52.70;24.25;;;;;;;1.76;97.89;99806.13;4935225;28;20362;-69
2023/12/10 07:28:35;;;;;;;55.10;23.92;;;;;;;1.86;98.14;99801.88;4934741;28;20067;-68
2023/12/10 07:31:02;;;;;;;58.30;23.48;;;;;;;1.88;98.03;99806.25;4935637;28;20452;-68
2023/12/10 07:33:29;;;;;;;64.85;23.75;;;;;;;1.94;98.07;99811.19;4935580;28;20461;-68
2023/12/10 07:35:57;;;;;;;49.97;23.42;;;;;;;2.02;97.88;99806.19;4934841;28;20047;-69
2023/12/10 07:38:24;;;;;;;47.70;22.42;;;;;;;2.10;97.89;99806.53;4934815;28;20504;-69
2023/12/10 07:40:51;;;;;;;46.03;20.70;;;;;;;2.11;97.78;99802.91;4933908;28;20039;-70
2023/12/10 07:43:17;;;;;;;55.03;22.10;;;;;;;2.16;98.12;99800.75;4933597;28;20048;-70
2023/12/10 07:45:44;;;;;;;49.38;21.77;;;;;;;2.16;97.69;99811.44;4933735;28;20461;-72
2023/12/10 07:48:11;;;;;;;54.17;21.58;;;;;;;2.17;97.65;99815.88;4934276;28;20051;-72
2023/12/10 07:50:38;;;;;;;45.08;21.50;;;;;;;2.25;97.70;99820.66;4933495;28;20064;-72
2023/12/10 07:53:05;;;;;;;46.65;20.48;;;;;;;2.27;97.81;99824.13;4935239;28;20052;-72
2023/12/10 07:55:31;;;;;;;50.10;21.33;;;;;;;2.29;97.85;99822.19;4935037;28;20059;-72
2023/12/10 07:57:58;;;;;;;49.22;22.20;;;;;;;2.37;97.77;99820.69;4934192;28;20052;-72
2023/12/10 08:00:25;;;;;;;52.55;20.85;;;;;;;2.48;97.54;99827.13;4934783;28;20055;-70
2023/12/10 08:02:52;;;;;;;57.17;20.52;;;;;;;2.47;97.64;99826.28;4933869;28;20142;-71
2023/12/10 08:05:19;;;;;;;51.72;20.70;;;;;;;2.42;97.58;99831.06;4934251;28;20062;-73
2023/12/10 08:07:46;;;;;;;52.50;20.50;;;;;;;2.45;97.22;99827.34;4931549;28;20123;-71
2023/12/10 08:10:13;;;;;;;56.28;23.25;;;;;;;2.53;97.42;99825.81;4933676;28;20134;-71
2023/12/10 08:12:40;;;;;;;49.30;18.98;;;;;;;2.66;97.53;99828.53;4933773;28;20044;-72
2023/12/10 08:15:08;;;;;;;42.00;18.27;;;;;;;2.73;96.94;99829.81;4934146;28;20393;-72
2023/12/10 08:17:34;;;;;;;42.17;17.13;;;;;;;2.87;96.90;99837.72;4933903;28;20052;-70
2023/12/10 08:20:02;;;;;;;38.83;15.50;;;;;;;3.05;96.27;99843.59;4934468;28;20615;-71
2023/12/10 08:22:31;;;;;;;39.75;16.15;;;;;;;3.12;95.71;99842.19;4934197;28;20416;-70
2023/12/10 08:24:57;;;;;;;39.67;15.15;;;;;;;3.16;95.47;99837.47;4934738;28;20068;-72
2023/12/10 08:27:25;;;;;;;30.25;14.10;;;;;;;3.30;95.39;99837.34;4940899;28;20048;-73
2023/12/10 08:29:52;;;;;;;37.78;13.40;;;;;;;3.44;94.74;99844.38;4944002;28;20052;-72
2023/12/10 08:32:18;;;;;;;36.13;13.68;;;;;;;3.46;94.62;99845.97;4945619;28;20075;-72
2023/12/10 08:34:45;;;;;;;33.03;12.35;;;;;;;3.47;94.94;99847.69;4944174;28;20051;-71
2023/12/10 08:37:13;;;;;;;37.35;12.00;;;;;;;3.60;94.73;99850.34;4943122;28;20512;-70
2023/12/10 08:39:40;;;;;;;29.65;11.93;;;;;;;3.67;94.62;99856.09;4943353;28;20115;-70
2023/12/10 08:42:06;;;;;;;30.40;10.23;;;;;;;3.75;94.19;99854.56;4943302;28;20051;-70
2023/12/10 08:44:35;;;;;;;38.67;11.30;;;;;;;3.80;94.62;99855.06;4942070;28;20150;-70
2023/12/10 08:47:01;;;;;;;37.10;10.48;;;;;;;4.05;93.69;99856.78;4932672;28;20050;-70
2023/12/10 08:49:28;;;;;;;30.35;9.60;;;;;;;4.14;93.27;99853.41;4933685;28;20055;-70
2023/12/10 08:51:55;;;;;;;31.50;9.30;;;;;;;4.22;93.57;99857.34;4933156;28;20509;-72
2023/12/10 08:54:21;;;;;;;27.98;8.75;;;;;;;4.27;92.75;99856.00;4921938;28;20067;-71
2023/12/10 08:56:50;;;;;;;36.42;7.78;;;;;;;4.27;93.24;99855.16;4913698;29;20170;-70
2023/12/10 08:59:17;;;;;;;26.90;7.50;;;;;;;4.40;93.25;99853.28;4913034;29;20051;-70
2023/12/10 09:01:43;;;;;;;44.40;8.48;;;;;;;4.38;93.55;99855.19;4912665;29;20365;-70
2023/12/10 09:04:11;;;;;;;30.98;7.95;;;;;;;4.39;93.87;99864.94;4913915;29;20072;-71
2023/12/10 09:06:38;;;;;;;29.02;7.30;;;;;;;4.47;93.67;99857.16;4912950;29;20099;-71
2023/12/10 09:09:05;;;;;;;27.15;7.05;;;;;;;4.64;93.10;99863.94;4913328;29;20420;-71
2023/12/10 09:11:32;;;;;;;34.92;7.50;;;;;;;4.56;93.95;99867.22;4914690;29;20446;-71
2023/12/10 09:13:59;;;;;;;25.77;6.75;;;;;;;4.69;93.56;99862.63;4912536;29;20131;-70
2023/12/10 09:16:26;;;;;;;40.67;7.35;;;;;;;4.67;94.11;99869.06;4912595;29;20193;-71
2023/12/10 09:18:52;;;;;;;34.88;6.63;;;;;;;4.82;93.69;99872.41;4912549;29;20108;-69
2023/12/10 09:21:19;;;;;;;25.75;5.65;;;;;;;4.78;94.20;99869.09;4913563;29;20055;-66
2023/12/10 09:23:46;;;;;;;40.15;6.72;;;;;;;4.84;93.63;99865.06;4912232;29;20048;-67
2023/12/10 09:26:13;;;;;;;35.95;5.57;;;;;;;4.93;93.13;99872.44;4912782;29;20059;-68
2023/12/10 09:28:39;;;;;;;31.40;5.60;;;;;;;4.90;93.64;99875.34;4912369;29;20052;-69
2023/12/10 09:31:06;;;;;;;37.95;7.00;;;;;;;4.93;93.53;99880.50;4912858;29;20052;-68
2023/12/10 09:33:32;;;;;;;34.35;6.30;;;;;;;4.90;93.45;99883.41;4913868;29;20112;-67
2023/12/10 09:35:59;;;;;;;30.60;5.38;;;;;;;4.94;93.65;99885.75;4913159;29;20072;-67
2023/12/10 09:38:26;;;;;;;28.55;4.85;;;;;;;4.94;93.63;99884.91;4913291;29;20119;-67
2023/12/10 09:40:53;;;;;;;33.10;6.00;;;;;;;4.99;93.58;99882.72;4911406;29;20103;-68
2023/12/10 09:43:20;;;;;;;38.08;6.50;;;;;;;5.03;93.60;99886.88;4913245;29;20052;-67
2023/12/10 09:45:46;;;;;;;35.60;6.65;;;;;;;5.11;93.64;99891.63;4912828;29;20497;-68
2023/12/10 09:48:13;;;;;;;36.42;5.55;;;;;;;5.21;92.82;99889.94;4913004;29;20052;-68
2023/12/10 09:50:41;;;;;;;45.13;6.45;;;;;;;5.24;92.55;99895.94;4911734;29;20071;-68
2023/12/10 09:53:08;;;;;;;33.90;6.43;;;;;;;5.31;92.50;99895.44;4915247;28;20465;-68
2023/12/10 09:55:35;;;;;;;40.45;5.95;;;;;;;5.31;92.80;99890.06;4932724;28;20106;-69
2023/12/10 09:58:02;;;;;;;31.73;5.00;;;;;;;5.40;92.42;99886.63;4930933;29;20051;-67
2023/12/10 10:00:29;;;;;;;50.42;7.20;;;;;;;5.36;92.31;99898.63;4932614;28;20120;-68
2023/12/10 10:03:03;;;;;;;35.03;5.32;;;;;;;5.38;92.47;99891.28;4934997;28;20043;-68
2023/12/10 10:05:29;;;;;;;38.03;5.65;;;;;;;5.39;92.77;99890.31;4936744;28;20043;-67
2023/12/10 10:07:56;;;;;;;47.80;6.57;;;;;;;5.40;92.74;99890.19;4934473;28;20580;-67
2023/12/10 10:10:25;;;;;;;43.85;6.20;;;;;;;5.45;92.78;99889.81;4935409;28;20099;-67
2023/12/10 10:12:56;;;;;;;42.70;7.30;;;;;;;5.52;92.18;99899.13;4935234;28;20533;-67
2023/12/10 10:15:27;;;;;;;40.60;7.13;;;;;;;5.48;92.76;99893.09;4935848;28;20131;-67
2023/12/10 10:17:55;;;;;;;40.95;5.85;;;;;;;5.44;93.01;99897.03;4935424;28;20264;-66
2023/12/10 10:20:24;;;;;;;34.38;5.93;;;;;;;5.45;92.55;99892.50;4935330;28;20501;-66
2023/12/10 10:22:51;;;;;;;38.20;4.95;;;;;;;5.41;93.22;99896.41;4935505;28;20158;-66
2023/12/10 10:25:20;;;;;;;46.10;6.68;;;;;;;5.37;93.50;99892.25;4933770;28;20120;-67
2023/12/10 10:27:52;;;;;;;44.65;6.40;;;;;;;5.45;92.74;99893.38;4934026;28;20134;-67
2023/12/10 10:30:19;;;;;;;34.20;6.07;;;;;;;5.38;93.30;99897.50;4935661;28;20457;-67
2023/12/10 10:32:48;;;;;;;43.00;7.63;;;;;;;5.48;92.65;99892.25;4935575;28;20464;-67
2023/12/10 10:35:15;;;;;;;42.35;7.85;;;;;;;5.50;92.33;99893.84;4934424;28;20075;-66
2023/12/10 10:37:42;;;;;;;35.28;7.22;;;;;;;5.41;93.07;99891.88;4935340;28;20460;-66
2023/12/10 10:40:09;;;;;;;42.65;8.32;;;;;;;5.36;94.05;99893.25;4935178;28;20120;-68
2023/12/10 10:42:38;;;;;;;37.08;7.85;;;;;;;5.51;92.83;99886.63;4934336;28;20054;-68
2023/12/10 10:45:06;;;;;;;44.90;6.47;;;;;;;5.44;93.31;99891.66;4935179;28;20052;-66
2023/12/10 10:47:34;;;;;;;51.08;6.82;;;;;;;5.43;93.77;99889.09;4933787;28;20047;-66
2023/12/10 10:50:04;;;;;;;45.33;6.50;;;;;;;5.50;93.05;99892.97;4935502;28;20051;-66
2023/12/10 10:52:52;;;;;;;41.67;6.10;;;;;;;5.58;92.18;99888.69;4934137;28;20126;-67
2023/12/10 10:55:18;;;;;;;34.67;5.55;;;;;;;5.45;93.42;99892.50;4917110;29;20048;-67
2023/12/10 10:57:46;;;;;;;30.15;5.85;;;;;;;5.45;93.25;99887.13;4916079;29;20135;-67
2023/12/10 11:00:19;;;;;;;42.55;6.85;;;;;;;5.39;94.03;99887.63;4916889;29;20052;-66
2023/12/10 11:03:01;;;;;;;35.65;5.90;;;;;;;5.52;93.07;99888.34;4916080;29;20058;-67
2023/12/10 11:05:32;;;;;;;31.20;5.63;;;;;;;5.50;92.90;99879.53;4916395;29;20048;-67
2023/12/10 11:08:00;;;;;;;42.03;6.35;;;;;;;5.44;93.18;99896.19;4915637;29;20052;-67
2023/12/10 11:10:27;;;;;;;33.97;5.65;;;;;;;5.42;93.25;99885.56;4916691;29;20048;-67
2023/12/10 11:12:54;;;;;;;31.80;5.38;;;;;;;5.41;93.13;99885.66;4915747;29;20044;-67
2023/12/10 11:15:21;;;;;;;39.35;5.28;;;;;;;5.43;93.31;99892.63;4916300;29;20509;-67
2023/12/10 11:17:51;;;;;;;43.60;6.05;;;;;;;5.39;93.62;99882.22;4914434;29;20482;-67
2023/12/10 11:20:43;;;;;;;38.03;6.63;;;;;;;5.40;93.59;99883.94;4916247;29;20052;-68
2023/12/10 11:23:15;;;;;;;33.33;5.43;;;;;;;5.37;93.70;99890.44;4916431;29;20058;-68
2023/12/10 11:25:42;;;;;;;38.75;5.80;;;;;;;5.40;93.66;99883.94;4914596;29;20063;-67
2023/12/10 11:28:17;;;;;;;39.67;5.63;;;;;;;5.40;93.36;99878.56;4916232;29;20052;-66